Airport ICAO


11:58 UTC

26°C

Clear skies


An affordable passengers' Moving Map for your aircraft. Made for the iPad and the iPhone
More information here

EGKK Gatwick


London UNITED KINGDOM   VFR CAVOK


METAR EGKK 191150Z VRB04KT CAVOK 26/10 Q1023 0h08min

TAF EGKK 191056Z 1912/2018 17005KT CAVOK BECMG 1921/1924 7000 PROB30 2003/2008 0800 FG VV/// BECMG 2007/2010 CAVOK 1h02min





NOTAMS

OPEN